createdAt,value
2023-06-11T00:01:25.275Z,99.90
2023-06-11T00:03:54.916Z,99.90
2023-06-11T00:06:24.241Z,99.90
2023-06-11T00:08:52.637Z,99.90
2023-06-11T00:11:19.724Z,99.90
2023-06-11T00:13:46.737Z,99.90
2023-06-11T00:16:14.351Z,99.90
2023-06-11T00:18:42.424Z,99.90
2023-06-11T00:21:13.429Z,99.90
2023-06-11T00:23:40.616Z,99.90
2023-06-11T00:26:08.186Z,99.80
2023-06-11T00:28:35.230Z,99.90
2023-06-11T00:31:02.351Z,99.90
2023-06-11T00:33:29.275Z,99.90
2023-06-11T00:35:56.108Z,99.90
2023-06-11T00:38:23.572Z,99.90
2023-06-11T00:40:50.573Z,99.90
2023-06-11T00:43:22.548Z,99.90
2023-06-11T00:45:52.204Z,99.90
2023-06-11T00:48:20.983Z,99.90
2023-06-11T00:50:51.615Z,99.90
2023-06-11T00:53:19.383Z,99.90
2023-06-11T00:55:46.511Z,99.90
2023-06-11T00:58:18.817Z,99.90
2023-06-11T01:00:47.461Z,99.90
2023-06-11T01:03:19.203Z,99.90
2023-06-11T01:05:49.281Z,99.90
2023-06-11T01:08:20.788Z,99.80
2023-06-11T01:10:48.494Z,99.70
2023-06-11T01:13:15.372Z,99.90
2023-06-11T01:15:42.323Z,99.70
2023-06-11T01:18:24.255Z,99.90
2023-06-11T01:21:13.436Z,99.70
2023-06-11T01:23:47.755Z,99.90
2023-06-11T01:26:17.038Z,99.60
2023-06-11T01:28:46.182Z,99.90
2023-06-11T01:31:15.985Z,99.90
2023-06-11T01:33:43.409Z,99.90
2023-06-11T01:36:11.970Z,99.90
2023-06-11T01:38:47.960Z,99.90
2023-06-11T01:41:15.183Z,99.90
2023-06-11T01:43:42.042Z,99.70
2023-06-11T01:46:09.098Z,99.60
2023-06-11T01:48:36.973Z,99.90
2023-06-11T01:51:03.899Z,99.30
2023-06-11T01:53:31.848Z,99.80
2023-06-11T01:55:59.485Z,99.90
2023-06-11T01:58:26.451Z,99.90
2023-06-11T02:00:54.683Z,99.90
2023-06-11T02:03:21.809Z,99.90
2023-06-11T02:05:48.962Z,99.90
2023-06-11T02:08:16.047Z,99.90
2023-06-11T02:10:43.817Z,99.90
2023-06-11T02:13:10.854Z,99.90
2023-06-11T02:15:37.911Z,99.90
2023-06-11T02:18:04.823Z,99.90
2023-06-11T02:20:31.750Z,99.90
2023-06-11T02:22:58.888Z,99.90
2023-06-11T02:25:25.905Z,99.90
2023-06-11T02:27:52.765Z,99.90
2023-06-11T02:30:19.892Z,99.90
2023-06-11T02:32:47.334Z,99.90
2023-06-11T02:35:14.500Z,99.90
2023-06-11T02:37:41.534Z,99.90
2023-06-11T02:40:08.923Z,99.90
2023-06-11T02:42:36.201Z,99.90
2023-06-11T02:45:03.189Z,99.90
2023-06-11T02:47:30.831Z,99.90
2023-06-11T02:49:57.932Z,99.90
2023-06-11T02:52:24.976Z,99.80
2023-06-11T02:54:52.041Z,99.90
2023-06-11T02:57:19.050Z,99.90
2023-06-11T02:59:45.995Z,99.90
2023-06-11T03:02:12.907Z,99.90
2023-06-11T03:04:39.741Z,99.90
2023-06-11T03:07:07.019Z,99.90
2023-06-11T03:09:33.877Z,99.70
2023-06-11T03:12:00.734Z,99.90
2023-06-11T03:14:27.658Z,99.90
2023-06-11T03:16:54.696Z,99.90
2023-06-11T03:19:21.673Z,99.90
2023-06-11T03:21:48.850Z,99.80
2023-06-11T03:24:16.145Z,99.80
2023-06-11T03:26:42.995Z,99.90
2023-06-11T03:29:10.082Z,99.80
2023-06-11T03:31:38.619Z,99.70
2023-06-11T03:34:05.586Z,99.60
2023-06-11T03:36:32.542Z,99.70
2023-06-11T03:38:59.553Z,99.80
2023-06-11T03:41:27.263Z,99.80
2023-06-11T03:43:54.322Z,99.80
2023-06-11T03:46:22.524Z,99.80
2023-06-11T03:48:49.561Z,99.50
2023-06-11T03:51:17.083Z,99.50
2023-06-11T03:53:43.874Z,99.80
2023-06-11T03:56:10.669Z,99.70
2023-06-11T03:58:37.640Z,99.90
2023-06-11T04:01:04.502Z,99.60
2023-06-11T04:03:31.400Z,99.60
2023-06-11T04:05:58.594Z,99.70
2023-06-11T04:08:25.524Z,99.70
2023-06-11T04:10:52.359Z,99.40
2023-06-11T04:13:19.376Z,99.70
2023-06-11T04:15:46.263Z,99.60
2023-06-11T04:18:13.298Z,99.70
2023-06-11T04:20:40.301Z,99.60
2023-06-11T04:23:07.878Z,99.70
2023-06-11T04:25:37.606Z,99.60
2023-06-11T04:28:04.681Z,99.50
2023-06-11T04:30:32.728Z,99.60
2023-06-11T04:32:59.723Z,99.70
2023-06-11T04:35:26.953Z,99.90
2023-06-11T04:37:54.258Z,99.80
2023-06-11T04:40:21.612Z,99.90
2023-06-11T04:42:49.627Z,99.70
2023-06-11T04:45:20.261Z,99.70
2023-06-11T04:47:47.844Z,99.80
2023-06-11T04:50:22.408Z,99.80
2023-06-11T04:52:52.748Z,99.90
2023-06-11T04:55:20.795Z,99.90
2023-06-11T04:57:47.743Z,99.70
2023-06-11T05:00:15.004Z,99.90
2023-06-11T05:02:45.704Z,99.60
2023-06-11T05:05:13.787Z,99.90
2023-06-11T05:07:41.212Z,99.90
2023-06-11T05:10:08.373Z,99.30
2023-06-11T05:12:35.475Z,99.90
2023-06-11T05:15:02.423Z,99.90
2023-06-11T05:17:29.721Z,99.30
2023-06-11T05:19:56.713Z,99.90
2023-06-11T05:22:24.393Z,99.10
2023-06-11T05:24:51.515Z,99.50
2023-06-11T05:27:18.497Z,99.10
2023-06-11T05:29:46.523Z,99.60
2023-06-11T05:32:16.261Z,99.50
2023-06-11T05:34:44.629Z,99.50
2023-06-11T05:37:11.827Z,99.80
2023-06-11T05:39:38.801Z,99.80
2023-06-11T05:42:05.865Z,99.20
2023-06-11T05:44:32.801Z,99.50
2023-06-11T05:46:59.753Z,99.00
2023-06-11T05:49:26.793Z,99.20
2023-06-11T05:51:53.833Z,99.70
2023-06-11T05:54:20.889Z,99.30
2023-06-11T05:56:48.019Z,99.30
2023-06-11T05:59:15.030Z,99.00
2023-06-11T06:01:46.637Z,99.10
2023-06-11T06:04:14.669Z,99.30
2023-06-11T06:06:41.653Z,98.80
2023-06-11T06:09:08.701Z,99.10
2023-06-11T06:11:35.768Z,99.20
2023-06-11T06:14:04.258Z,99.10
2023-06-11T06:16:33.013Z,99.60
2023-06-11T06:19:00.273Z,99.40
2023-06-11T06:21:27.105Z,99.40
2023-06-11T06:23:54.235Z,99.50
2023-06-11T06:26:21.498Z,99.20
2023-06-11T06:28:48.296Z,99.40
2023-06-11T06:31:18.011Z,99.60
2023-06-11T06:33:44.966Z,99.30
2023-06-11T06:36:11.788Z,99.20
2023-06-11T06:38:38.702Z,98.90
2023-06-11T06:41:05.838Z,99.30
2023-06-11T06:43:34.318Z,99.40
2023-06-11T06:46:01.662Z,99.40
2023-06-11T06:48:28.841Z,99.60
2023-06-11T06:50:55.914Z,99.20
2023-06-11T06:53:22.933Z,99.40
2023-06-11T06:55:52.965Z,99.30
2023-06-11T06:58:20.190Z,99.20
2023-06-11T07:00:47.035Z,98.90
2023-06-11T07:03:15.397Z,98.80
2023-06-11T07:05:42.542Z,98.50
2023-06-11T07:08:13.523Z,99.30
2023-06-11T07:10:48.653Z,98.70
2023-06-11T07:13:16.728Z,99.10
2023-06-11T07:15:43.693Z,99.60
2023-06-11T07:18:10.612Z,99.20
2023-06-11T07:20:37.534Z,98.80
2023-06-11T07:23:04.388Z,98.20
2023-06-11T07:25:32.358Z,98.70
2023-06-11T07:28:02.606Z,98.20
2023-06-11T07:30:29.839Z,98.80
2023-06-11T07:32:56.853Z,98.40
2023-06-11T07:35:24.506Z,99.20
2023-06-11T07:37:52.408Z,98.80
2023-06-11T07:40:19.824Z,98.60
2023-06-11T07:42:47.112Z,99.00
2023-06-11T07:45:14.360Z,99.00
2023-06-11T07:47:42.410Z,98.30
2023-06-11T07:50:11.002Z,98.90
2023-06-11T07:52:38.023Z,98.80
2023-06-11T07:55:05.133Z,97.10
2023-06-11T07:57:32.017Z,98.30
2023-06-11T07:59:58.907Z,98.10
2023-06-11T08:02:26.318Z,96.70
2023-06-11T08:04:53.264Z,96.10
2023-06-11T08:07:20.115Z,98.80
2023-06-11T08:09:47.048Z,97.30
2023-06-11T08:12:14.066Z,98.00
2023-06-11T08:14:40.984Z,98.30
2023-06-11T08:17:09.378Z,97.60
2023-06-11T08:19:36.404Z,98.10
2023-06-11T08:22:03.450Z,96.90
2023-06-11T08:24:31.948Z,97.20
2023-06-11T08:26:58.871Z,96.70
2023-06-11T08:29:25.734Z,95.40
2023-06-11T08:31:52.899Z,96.50
2023-06-11T08:34:19.753Z,95.90
2023-06-11T08:36:46.654Z,97.00
2023-06-11T08:39:13.611Z,97.70
2023-06-11T08:41:40.554Z,95.40
2023-06-11T08:44:07.335Z,96.90
2023-06-11T08:46:35.751Z,98.00
2023-06-11T08:49:07.454Z,97.10
2023-06-11T08:51:41.226Z,96.40
2023-06-11T08:54:09.007Z,97.70
2023-06-11T08:56:36.106Z,96.60
2023-06-11T08:59:03.336Z,96.20
2023-06-11T09:01:30.635Z,97.60
2023-06-11T09:03:57.611Z,97.20
2023-06-11T09:06:24.954Z,96.10
2023-06-11T09:09:01.924Z,95.50
2023-06-11T09:11:38.680Z,97.70
2023-06-11T09:14:06.632Z,98.20
2023-06-11T09:16:41.025Z,96.80
2023-06-11T09:19:10.058Z,95.70
2023-06-11T09:21:38.515Z,97.20
2023-06-11T09:24:11.655Z,96.10
2023-06-11T09:26:38.596Z,98.10
2023-06-11T09:29:06.007Z,97.80
2023-06-11T09:31:33.279Z,96.70
2023-06-11T09:34:04.360Z,95.80
2023-06-11T09:36:32.547Z,96.10
2023-06-11T09:38:59.483Z,94.80
2023-06-11T09:41:28.433Z,96.70
2023-06-11T09:43:55.417Z,95.90
2023-06-11T09:46:22.754Z,96.40
2023-06-11T09:48:49.638Z,97.90
2023-06-11T09:51:22.547Z,97.30
2023-06-11T09:53:52.729Z,95.10
2023-06-11T09:56:20.519Z,94.90
2023-06-11T09:58:48.619Z,95.50
2023-06-11T10:01:17.237Z,95.20
2023-06-11T10:03:44.464Z,94.30
2023-06-11T10:06:16.732Z,97.00
2023-06-11T10:08:45.736Z,95.40
2023-06-11T10:11:12.763Z,95.10
2023-06-11T10:13:39.640Z,94.10
2023-06-11T10:16:10.146Z,94.90
2023-06-11T10:18:37.167Z,97.30
2023-06-11T10:21:05.353Z,98.10
2023-06-11T10:23:37.533Z,97.50
2023-06-11T10:26:05.105Z,97.70
2023-06-11T10:28:39.261Z,97.50
2023-06-11T10:31:06.314Z,97.20
2023-06-11T10:33:46.197Z,98.20
2023-06-11T10:36:33.495Z,95.90
2023-06-11T10:39:09.976Z,95.90
2023-06-11T10:41:40.871Z,97.50
2023-06-11T10:44:08.303Z,97.70
2023-06-11T10:47:01.750Z,95.20
2023-06-11T10:49:29.379Z,96.40
2023-06-11T10:51:56.341Z,98.00
2023-06-11T10:54:27.097Z,96.90
2023-06-11T10:56:54.214Z,97.90
2023-06-11T10:59:24.377Z,97.30
2023-06-11T11:01:54.788Z,95.20
2023-06-11T11:04:22.829Z,94.70
2023-06-11T11:06:50.223Z,96.40
2023-06-11T11:09:23.852Z,95.70
2023-06-11T11:11:53.796Z,97.30
2023-06-11T11:14:20.812Z,94.90
2023-06-11T11:16:48.856Z,94.80
2023-06-11T11:19:16.822Z,94.60
2023-06-11T11:21:50.932Z,95.90
2023-06-11T11:24:17.776Z,97.90
2023-06-11T11:26:45.458Z,97.20
2023-06-11T11:29:13.016Z,96.40
2023-06-11T11:31:40.938Z,97.70
2023-06-11T11:34:08.022Z,94.20
2023-06-11T11:36:34.927Z,97.60
2023-06-11T11:39:17.413Z,97.40
2023-06-11T11:41:51.247Z,97.40
2023-06-11T11:44:18.387Z,97.00
2023-06-11T11:46:45.456Z,98.00
2023-06-11T11:49:13.722Z,98.20
2023-06-11T11:51:42.035Z,98.40
2023-06-11T11:54:13.762Z,97.20
2023-06-11T11:56:40.911Z,94.80
2023-06-11T11:59:18.366Z,93.80
2023-06-11T12:01:57.767Z,93.10
2023-06-11T12:04:58.805Z,92.70
2023-06-11T12:07:26.347Z,93.10
2023-06-11T12:09:53.534Z,96.70
2023-06-11T12:12:20.870Z,94.30
2023-06-11T12:14:47.823Z,94.90
2023-06-11T12:17:14.728Z,97.20
2023-06-11T12:19:41.761Z,95.80
2023-06-11T12:22:08.576Z,97.00
2023-06-11T12:24:35.805Z,97.10
2023-06-11T12:27:08.552Z,94.30
2023-06-11T12:29:38.832Z,96.80
2023-06-11T12:32:06.037Z,94.10
2023-06-11T12:34:33.194Z,94.40
2023-06-11T12:37:00.130Z,93.20
2023-06-11T12:39:28.126Z,93.70
2023-06-11T12:41:55.084Z,96.10
2023-06-11T12:44:22.160Z,96.70
2023-06-11T12:46:49.356Z,97.40
2023-06-11T12:49:16.386Z,97.10
2023-06-11T12:51:47.118Z,95.20
2023-06-11T12:54:15.886Z,94.90
2023-06-11T12:56:42.869Z,96.90
2023-06-11T12:59:09.848Z,97.40
2023-06-11T13:01:37.168Z,97.00
2023-06-11T13:04:04.423Z,96.80
2023-06-11T13:06:31.525Z,93.40
2023-06-11T13:08:58.878Z,97.00
2023-06-11T13:11:27.532Z,93.60
2023-06-11T13:13:55.000Z,95.20
2023-06-11T13:16:22.460Z,93.60
2023-06-11T13:18:49.413Z,95.60
2023-06-11T13:21:16.993Z,96.90
2023-06-11T13:23:46.952Z,96.20
2023-06-11T13:26:13.886Z,93.90
2023-06-11T13:28:42.911Z,93.20
2023-06-11T13:31:10.190Z,95.20
2023-06-11T13:33:37.382Z,97.00
2023-06-11T13:36:04.637Z,95.50
2023-06-11T13:38:31.629Z,93.20
2023-06-11T13:40:58.932Z,93.40
2023-06-11T13:43:26.014Z,94.70
2023-06-11T13:45:54.749Z,93.40
2023-06-11T13:48:23.233Z,96.60
2023-06-11T13:50:52.137Z,97.00
2023-06-11T13:53:22.698Z,96.90
2023-06-11T13:55:49.913Z,97.20
2023-06-11T13:58:17.156Z,93.80
2023-06-11T14:00:44.575Z,93.60
2023-06-11T14:03:12.189Z,92.40
2023-06-11T14:05:39.409Z,93.40
2023-06-11T14:08:06.723Z,95.50
2023-06-11T14:10:33.607Z,96.70
2023-06-11T14:13:00.871Z,95.40
2023-06-11T14:15:27.981Z,96.60
2023-06-11T14:17:55.020Z,96.40
2023-06-11T14:20:22.371Z,94.80
2023-06-11T14:22:50.141Z,95.60
2023-06-11T14:25:17.069Z,96.50
2023-06-11T14:27:44.514Z,93.30
2023-06-11T14:30:12.029Z,92.50
2023-06-11T14:32:39.097Z,94.70
2023-06-11T14:35:06.572Z,96.70
2023-06-11T14:37:33.605Z,93.30
2023-06-11T14:40:00.409Z,92.20
2023-06-11T14:42:27.500Z,96.10
2023-06-11T14:44:54.658Z,96.80
2023-06-11T14:47:21.744Z,96.20
2023-06-11T14:49:48.685Z,95.80
2023-06-11T14:52:15.633Z,96.00
2023-06-11T14:54:42.555Z,93.80
2023-06-11T14:57:12.969Z,93.20
2023-06-11T14:59:40.805Z,92.50
2023-06-11T15:02:08.826Z,92.50
2023-06-11T15:04:41.815Z,95.00
2023-06-11T15:07:20.249Z,93.90
2023-06-11T15:09:52.218Z,92.00
2023-06-11T15:12:19.094Z,93.40
2023-06-11T15:14:46.065Z,95.80
2023-06-11T15:17:13.177Z,95.20
2023-06-11T15:19:40.119Z,96.20
2023-06-11T15:22:07.145Z,92.30
2023-06-11T15:24:34.162Z,95.10
2023-06-11T15:27:01.131Z,92.70
2023-06-11T15:29:28.080Z,92.20
2023-06-11T15:31:57.349Z,96.10
2023-06-11T15:34:24.238Z,95.80
2023-06-11T15:36:51.121Z,95.10
2023-06-11T15:39:18.066Z,94.80
2023-06-11T15:41:45.005Z,92.20
2023-06-11T15:44:11.939Z,91.60
2023-06-11T15:46:38.865Z,92.50
2023-06-11T15:49:06.032Z,91.70
2023-06-11T15:51:33.107Z,93.80
2023-06-11T15:54:03.280Z,95.90
2023-06-11T15:56:30.996Z,96.60
2023-06-11T15:58:58.061Z,96.20
2023-06-11T16:01:25.051Z,96.60
2023-06-11T16:03:51.976Z,95.30
2023-06-11T16:06:19.572Z,96.20
2023-06-11T16:08:46.579Z,95.20
2023-06-11T16:11:13.425Z,97.00
2023-06-11T16:13:40.245Z,97.10
2023-06-11T16:16:07.652Z,96.10
2023-06-11T16:18:34.889Z,96.10
2023-06-11T16:21:01.876Z,93.40
2023-06-11T16:23:28.904Z,92.70
2023-06-11T16:25:55.820Z,95.90
2023-06-11T16:28:22.674Z,93.00
2023-06-11T16:30:49.839Z,96.40
2023-06-11T16:33:17.059Z,94.80
2023-06-11T16:35:44.090Z,96.30
2023-06-11T16:38:11.125Z,96.80
2023-06-11T16:40:37.932Z,93.60
2023-06-11T16:43:04.761Z,95.00
2023-06-11T16:45:32.326Z,93.30
2023-06-11T16:47:59.227Z,93.00
2023-06-11T16:50:26.137Z,93.40
2023-06-11T16:52:53.487Z,96.50
2023-06-11T16:55:21.460Z,95.00
2023-06-11T16:57:49.953Z,93.00
2023-06-11T17:00:20.781Z,92.90
2023-06-11T17:02:50.432Z,94.80
2023-06-11T17:05:17.713Z,93.40
2023-06-11T17:07:45.602Z,92.70
2023-06-11T17:10:13.115Z,92.40
2023-06-11T17:12:41.797Z,92.70
2023-06-11T17:15:09.234Z,95.00
2023-06-11T17:17:37.109Z,95.10
2023-06-11T17:20:04.444Z,95.40
2023-06-11T17:22:31.621Z,95.90
2023-06-11T17:24:58.664Z,96.40
2023-06-11T17:27:25.705Z,95.00
2023-06-11T17:29:52.898Z,96.90
2023-06-11T17:32:20.651Z,96.80
2023-06-11T17:34:48.382Z,95.50
2023-06-11T17:37:15.833Z,96.80
2023-06-11T17:39:42.734Z,96.90
2023-06-11T17:42:09.943Z,96.70
2023-06-11T17:44:37.021Z,96.40
2023-06-11T17:47:04.218Z,96.50
2023-06-11T17:49:31.208Z,97.10
2023-06-11T17:51:58.272Z,96.90
2023-06-11T17:54:25.312Z,96.80
2023-06-11T17:56:52.297Z,97.10
2023-06-11T17:59:19.275Z,96.90
2023-06-11T18:01:46.366Z,97.60
2023-06-11T18:04:14.126Z,97.50
2023-06-11T18:06:41.304Z,97.10
2023-06-11T18:09:08.180Z,96.90
2023-06-11T18:11:36.642Z,97.50
2023-06-11T18:14:03.692Z,97.60
2023-06-11T18:16:30.749Z,97.00
2023-06-11T18:18:57.771Z,97.80
2023-06-11T18:21:27.094Z,97.20
2023-06-11T18:23:55.902Z,97.60
2023-06-11T18:26:22.884Z,97.00
2023-06-11T18:28:49.897Z,97.40
2023-06-11T18:31:16.815Z,97.20
2023-06-11T18:33:43.742Z,97.30
2023-06-11T18:36:10.694Z,97.20
2023-06-11T18:38:37.658Z,97.90
2023-06-11T18:41:04.574Z,97.10
2023-06-11T18:43:33.285Z,97.40
2023-06-11T18:46:00.330Z,97.10
2023-06-11T18:48:27.253Z,97.40
2023-06-11T18:50:54.162Z,96.70
2023-06-11T18:53:21.070Z,97.30
2023-06-11T18:55:48.136Z,97.50
2023-06-11T18:58:17.375Z,97.40
2023-06-11T19:00:45.175Z,97.50
2023-06-11T19:03:12.385Z,97.00
2023-06-11T19:05:40.116Z,97.40
2023-06-11T19:08:07.441Z,97.50
2023-06-11T19:10:35.383Z,97.50
2023-06-11T19:13:04.103Z,97.50
2023-06-11T19:15:31.063Z,97.00
2023-06-11T19:17:58.555Z,97.20
2023-06-11T19:20:28.388Z,97.00
2023-06-11T19:22:56.328Z,97.50
2023-06-11T19:25:24.267Z,97.20
2023-06-11T19:27:51.479Z,97.60
2023-06-11T19:30:18.546Z,97.00
2023-06-11T19:32:45.892Z,97.20
2023-06-11T19:35:13.228Z,97.00
2023-06-11T19:37:40.241Z,97.50
2023-06-11T19:40:08.300Z,97.60
2023-06-11T19:42:35.871Z,96.90
2023-06-11T19:45:05.247Z,98.10
2023-06-11T19:47:33.708Z,97.00
2023-06-11T19:50:01.174Z,97.90
2023-06-11T19:52:28.530Z,97.60
2023-06-11T19:54:55.644Z,96.20
2023-06-11T19:57:22.794Z,97.10
2023-06-11T19:59:50.260Z,97.20
2023-06-11T20:02:17.498Z,97.70
2023-06-11T20:04:44.629Z,97.40
2023-06-11T20:07:11.665Z,97.20
2023-06-11T20:09:38.735Z,97.00
2023-06-11T20:12:07.923Z,97.30
2023-06-11T20:14:35.876Z,97.60
2023-06-11T20:17:03.565Z,97.40
2023-06-11T20:19:30.717Z,96.70
2023-06-11T20:22:00.796Z,96.00
2023-06-11T20:24:28.286Z,96.80
2023-06-11T20:26:55.948Z,96.50
2023-06-11T20:29:24.265Z,95.70
2023-06-11T20:31:51.623Z,96.00
2023-06-11T20:34:18.525Z,95.50
2023-06-11T20:36:45.483Z,95.70
2023-06-11T20:39:12.359Z,95.90
2023-06-11T20:41:39.286Z,96.60
2023-06-11T20:44:06.305Z,95.80
2023-06-11T20:46:33.462Z,95.50
2023-06-11T20:49:00.634Z,96.00
2023-06-11T20:51:27.617Z,95.50
2023-06-11T20:53:54.680Z,96.00
2023-06-11T20:56:23.050Z,96.20
2023-06-11T20:58:50.177Z,95.30
2023-06-11T21:01:17.086Z,95.50
2023-06-11T21:03:45.188Z,95.30
2023-06-11T21:06:12.292Z,94.80
2023-06-11T21:08:39.250Z,95.00
2023-06-11T21:11:06.530Z,94.70
2023-06-11T21:13:35.372Z,95.00
2023-06-11T21:16:02.483Z,95.00
2023-06-11T21:18:29.376Z,95.00
2023-06-11T21:20:56.200Z,95.70
2023-06-11T21:23:23.076Z,95.50
2023-06-11T21:25:50.439Z,95.90
2023-06-11T21:28:17.443Z,96.10
2023-06-11T21:30:46.365Z,96.10
2023-06-11T21:33:13.544Z,95.80
2023-06-11T21:35:40.413Z,96.20
2023-06-11T21:38:07.273Z,95.30
2023-06-11T21:40:34.080Z,95.60
2023-06-11T21:43:00.956Z,95.40
2023-06-11T21:45:27.812Z,95.90
2023-06-11T21:47:54.826Z,95.40
2023-06-11T21:50:21.861Z,95.90
2023-06-11T21:52:48.759Z,95.10
2023-06-11T21:55:16.265Z,95.20
2023-06-11T21:57:43.236Z,95.40
2023-06-11T22:00:14.645Z,94.40
2023-06-11T22:02:42.322Z,94.70
2023-06-11T22:05:09.989Z,94.60
2023-06-11T22:07:37.335Z,94.40
2023-06-11T22:10:05.535Z,93.80
2023-06-11T22:12:42.004Z,94.00
2023-06-11T22:15:10.165Z,94.00
2023-06-11T22:17:38.283Z,93.90
2023-06-11T22:20:09.755Z,94.30
2023-06-11T22:22:38.427Z,93.90
2023-06-11T22:25:06.188Z,94.80
2023-06-11T22:27:33.585Z,94.00
2023-06-11T22:30:00.571Z,94.20
2023-06-11T22:32:27.768Z,95.00
2023-06-11T22:34:54.781Z,94.90
2023-06-11T22:37:21.737Z,94.70
2023-06-11T22:39:48.675Z,95.00
2023-06-11T22:42:15.632Z,95.10
2023-06-11T22:44:42.602Z,94.80
2023-06-11T22:47:11.189Z,95.20
2023-06-11T22:49:39.354Z,95.50
2023-06-11T22:52:08.839Z,95.90
2023-06-11T22:54:36.229Z,96.10
2023-06-11T22:57:04.465Z,96.30
2023-06-11T22:59:31.300Z,96.90
2023-06-11T23:01:58.283Z,96.70
2023-06-11T23:04:25.507Z,97.00
2023-06-11T23:06:52.549Z,97.10
2023-06-11T23:09:20.082Z,97.20
2023-06-11T23:11:47.442Z,97.40
2023-06-11T23:14:15.153Z,97.50
2023-06-11T23:16:43.707Z,97.90
2023-06-11T23:19:11.521Z,97.90
2023-06-11T23:21:44.639Z,97.80
2023-06-11T23:24:11.686Z,97.90
2023-06-11T23:26:45.403Z,97.90
2023-06-11T23:29:13.717Z,98.40
2023-06-11T23:31:40.793Z,97.80
2023-06-11T23:34:10.167Z,98.10
2023-06-11T23:36:41.089Z,98.10
2023-06-11T23:39:09.308Z,98.10
2023-06-11T23:41:36.921Z,98.50
2023-06-11T23:44:05.918Z,98.10
2023-06-11T23:46:35.671Z,98.10
2023-06-11T23:49:02.882Z,98.10
2023-06-11T23:51:30.267Z,98.10
2023-06-11T23:53:57.259Z,98.10
2023-06-11T23:56:24.200Z,98.00
2023-06-11T23:58:51.306Z,98.10
